Hailey, ID

8:05 AM MST on January 18, 2017 (GMT -0700)
Friedman Memorial | | Change Station
Active Advisory: Winter Storm Warning

Elev 5312 ft 43.50 °N, 114.30 °W | Updated 18 minutes ago

Mostly Cloudy
Mostly Cloudy
16 °F
Feels Like 4 °F
N
9
Wind Variable Wind from WNW

Today
High -- | Low -- °F
--% Chance of Precip.
Yesterday
High -- | Low -- °F
Precip. -- in
Pressure 30.03 in
Visibility 10.0 miles
Clouds Mostly Cloudy 10000 ft
Windchill 4 °F
Dew Point 9 °F
Humidity 73%
Rainfall 0.00 in
Snow Depth Not available.
8:05 AM 5:30 PM
Waning Gibbous, 62% visible
METAR KSUN 181447Z 30008KT 10SM BKN100 M09/M13 A3003
Pressure 30.03 in
Visibility 10.0 miles
Clouds Mostly Cloudy 10000 ft
Windchill 4 °F
Dew Point 9 °F
Humidity 73%
Rainfall 0.00 in
Snow Depth Not available.
8:05 AM 5:30 PM
Waning Gibbous, 62% visible
METAR KSUN 181447Z 30008KT 10SM BKN100 M09/M13 A3003

Get Your Daily Forecast Email!

Thanks for signing up!

Be on the lookout for a verification email in your inbox.

You'll start receiving the daily forecast at 8 AM.

×

10-Day Weather Forecast

Almanac

Astronomy

Jan. 18, 2017 Rise Set
Actual Time
Civil Twilight
Nautical Twilight
Astronomical Twilight
Moon
Length of Visible Light
Length of Day
Tomorrow will be .
, % of the Moon is Illuminated

Today's Extremes

State Highs State Lows

Community

WunderPhotos

Upload Photos

1,962,540 photos uploaded!

WunderBlog® & News

Nearby

Air Quality

  Air Quality AQ Index Pollutant
Not available.

Snow Depth

Station Depth Elevation

Earthquake Activity

City Distance Mag. Time & Date
Minimum magnitude displayed is 2.5.

Coastal Water Temperatures

Place Temperature

Stations

Nearby Weather Stations

Station Location Temp. Windchill Dew Point Humidity Wind Precip. Elev Updated Type
                   

Watches & Warnings

Winter Storm Warning
Issued: 3:13 AM MST Jan. 18, 2017 – National Weather Service

... Winter Storm Warning remains in effect from 11 am this morning
to 9 PM MST Thursday...

* impacts... moderate to heavy snowfall will accumulate on
roadways and may reduce visibility, making travel difficult.
Mountain passes may become extremely difficult to travel.

* Timing... snow will increase in intensity late this morning and
continue into Thursday evening.

* Snow accumulations... 5 to 9 inches, up to 14 inches possible
near mountain tops.

* Confidence... high confidence on timing and snowfall amounts.

* Locations... Stanley, Clayton, Hailey, Ketchum, Bellevue,
Galena Summit.

Precautionary/preparedness actions...

A Winter Storm Warning for heavy snow means severe winter weather
conditions are expected or occurring. Significant amounts of snow
are forecast that will make travel dangerous. If you must travel,
keep an extra flashlight, food and water in your vehicle in case
of an emergency.